Portada
METAR-TAF:

METAR-TAF

Aeroports :

Mogadixo, Somàlia

latitud: 02-02N, longitud: 045-21E, altitud: 9 m

Observació

L'informe es va fer fa 12 hores i 9 minuts, a les 14:00 UTC
Vent 18 kt del Est
Temperatura 28°C
Humitat 66%
Pressió 1007 hPa
Visibilitat 10 km o més
sense núvols per sota de 1500 mi sense presència de cumulonimbus.

METAR: HCMM 051400Z 08018KT CAVOK 28/21 Q1007

Hora: 05:09 (02:09 UTC)

Pronòstic

L'informe es va fer fa 15 hores i 9 minuts, a les 11:00 UTC
Pronòstic vàlid del 05 a les 12 UTC al 06 a les 18 UTC
Vent 18 kt del Est
Visibilitat 10 km o més
Escasses núvols a una alçada de 2300 ft
Evolucionant progressivament
l' 05 a les 23 UTC al 06 a les 02 UTC
Núvols disperses a una alçada de 1900 ft
Evolucionant progressivament
l' 06 a les 09 UTC al 06 a les 12 UTC
Vent 13 kt del Est
Escasses núvols a una alçada de 2400 ft

TAF: HCMM 051100Z 0512/0618 08018KT 9999 FEW023 BECMG 0523/0602 SCT019 BECMG 0609/0612 09013KT FEW024

Observacions i pronòstics meteorològics de més de 4000 aeroports (METAR i TAF).

Les estacions disponibles són els punts grocs i vermells al mapa.

Posi el ratolí al punt desitjat per veure el nom de l'estació.

Feu clic per veure les observacions i els pronòstics meteorològics.

Per canviar el mapa: feu clic els botons verds amb una creu de color negre per apropar; al botó verd amb un guió per allunyar la imatge; o en les fletxes verdes per a mapes adjacents.


METAR-TAF: